sensor_id;sensor_type;location;lat;lon;timestamp;temperature;humidity
34644;DHT22;26931;43.498;-1.506;2022-12-24T00:02:18;16.50;99.90
34644;DHT22;26931;43.498;-1.506;2022-12-24T00:04:44;16.40;99.90
34644;DHT22;26931;43.498;-1.506;2022-12-24T00:07:10;16.40;99.90
34644;DHT22;26931;43.498;-1.506;2022-12-24T00:09:36;16.40;99.90
34644;DHT22;26931;43.498;-1.506;2022-12-24T00:12:01;16.40;99.90
34644;DHT22;26931;43.498;-1.506;2022-12-24T00:14:27;16.50;99.90
34644;DHT22;26931;43.498;-1.506;2022-12-24T00:16:53;16.30;99.90
34644;DHT22;26931;43.498;-1.506;2022-12-24T00:19:19;16.30;99.90
34644;DHT22;26931;43.498;-1.506;2022-12-24T00:21:45;16.20;99.90
34644;DHT22;26931;43.498;-1.506;2022-12-24T00:24:11;16.30;99.90
34644;DHT22;26931;43.498;-1.506;2022-12-24T00:26:36;16.20;99.90
34644;DHT22;26931;43.498;-1.506;2022-12-24T00:29:02;16.20;99.90
34644;DHT22;26931;43.498;-1.506;2022-12-24T00:31:28;16.20;99.90
34644;DHT22;26931;43.498;-1.506;2022-12-24T00:33:54;16.20;99.90
34644;DHT22;26931;43.498;-1.506;2022-12-24T00:36:20;16.10;99.90
34644;DHT22;26931;43.498;-1.506;2022-12-24T00:38:46;16.00;99.90
34644;DHT22;26931;43.498;-1.506;2022-12-24T00:41:12;16.20;99.90
34644;DHT22;26931;43.498;-1.506;2022-12-24T00:43:51;16.00;99.90
34644;DHT22;26931;43.498;-1.506;2022-12-24T00:46:16;16.00;99.90
34644;DHT22;26931;43.498;-1.506;2022-12-24T00:48:42;16.00;99.90
34644;DHT22;26931;43.498;-1.506;2022-12-24T00:51:08;16.00;99.90
34644;DHT22;26931;43.498;-1.506;2022-12-24T00:53:34;15.80;99.90
34644;DHT22;26931;43.498;-1.506;2022-12-24T00:56:00;15.80;99.90
34644;DHT22;26931;43.498;-1.506;2022-12-24T00:58:25;15.80;99.90
34644;DHT22;26931;43.498;-1.506;2022-12-24T01:00:51;15.80;99.90
34644;DHT22;26931;43.498;-1.506;2022-12-24T01:03:16;15.90;99.90
34644;DHT22;26931;43.498;-1.506;2022-12-24T01:05:42;16.00;99.90
34644;DHT22;26931;43.498;-1.506;2022-12-24T01:08:08;15.80;99.90
34644;DHT22;26931;43.498;-1.506;2022-12-24T01:10:34;15.80;99.90
34644;DHT22;26931;43.498;-1.506;2022-12-24T01:13:00;15.70;99.90
34644;DHT22;26931;43.498;-1.506;2022-12-24T01:15:27;15.70;99.90
34644;DHT22;26931;43.498;-1.506;2022-12-24T01:17:53;15.70;99.90
34644;DHT22;26931;43.498;-1.506;2022-12-24T01:20:19;15.70;99.90
34644;DHT22;26931;43.498;-1.506;2022-12-24T01:22:45;15.60;99.90
34644;DHT22;26931;43.498;-1.506;2022-12-24T01:25:11;15.60;99.90
34644;DHT22;26931;43.498;-1.506;2022-12-24T01:27:37;15.50;99.90
34644;DHT22;26931;43.498;-1.506;2022-12-24T01:30:04;15.40;99.90
34644;DHT22;26931;43.498;-1.506;2022-12-24T01:32:30;15.40;99.90
34644;DHT22;26931;43.498;-1.506;2022-12-24T01:34:55;15.30;99.90
34644;DHT22;26931;43.498;-1.506;2022-12-24T01:37:22;15.30;99.90
34644;DHT22;26931;43.498;-1.506;2022-12-24T01:39:48;15.40;99.90
34644;DHT22;26931;43.498;-1.506;2022-12-24T01:42:17;15.20;99.90
34644;DHT22;26931;43.498;-1.506;2022-12-24T01:45:29;15.00;99.90
34644;DHT22;26931;43.498;-1.506;2022-12-24T01:47:47;15.20;99.90
34644;DHT22;26931;43.498;-1.506;2022-12-24T01:50:14;15.20;99.90
34644;DHT22;26931;43.498;-1.506;2022-12-24T01:52:40;15.40;99.90
34644;DHT22;26931;43.498;-1.506;2022-12-24T01:55:07;15.20;99.90
34644;DHT22;26931;43.498;-1.506;2022-12-24T01:57:34;15.00;99.90
34644;DHT22;26931;43.498;-1.506;2022-12-24T02:00:04;15.00;99.90
34644;DHT22;26931;43.498;-1.506;2022-12-24T02:02:30;14.90;99.90
34644;DHT22;26931;43.498;-1.506;2022-12-24T02:04:59;15.00;99.90
34644;DHT22;26931;43.498;-1.506;2022-12-24T02:07:26;14.90;99.90
34644;DHT22;26931;43.498;-1.506;2022-12-24T02:09:53;15.00;99.90
34644;DHT22;26931;43.498;-1.506;2022-12-24T02:12:21;15.10;99.90
34644;DHT22;26931;43.498;-1.506;2022-12-24T02:14:47;14.90;99.90
34644;DHT22;26931;43.498;-1.506;2022-12-24T02:17:25;14.80;99.90
34644;DHT22;26931;43.498;-1.506;2022-12-24T02:30:44;14.80;99.90
34644;DHT22;26931;43.498;-1.506;2022-12-24T02:33:15;14.90;99.90
34644;DHT22;26931;43.498;-1.506;2022-12-24T02:35:50;14.80;99.90
34644;DHT22;26931;43.498;-1.506;2022-12-24T02:38:18;14.80;99.90
34644;DHT22;26931;43.498;-1.506;2022-12-24T02:40:54;14.80;99.90
34644;DHT22;26931;43.498;-1.506;2022-12-24T02:43:22;14.80;99.90
34644;DHT22;26931;43.498;-1.506;2022-12-24T02:45:51;14.70;99.90
34644;DHT22;26931;43.498;-1.506;2022-12-24T02:48:17;14.80;99.90
34644;DHT22;26931;43.498;-1.506;2022-12-24T02:51:02;14.70;99.90
34644;DHT22;26931;43.498;-1.506;2022-12-24T02:53:28;14.70;99.90
34644;DHT22;26931;43.498;-1.506;2022-12-24T02:58:37;14.60;99.90
34644;DHT22;26931;43.498;-1.506;2022-12-24T03:01:13;14.60;99.90
34644;DHT22;26931;43.498;-1.506;2022-12-24T03:08:52;14.50;99.90
34644;DHT22;26931;43.498;-1.506;2022-12-24T03:11:19;14.70;99.90
34644;DHT22;26931;43.498;-1.506;2022-12-24T03:13:45;14.40;99.90
34644;DHT22;26931;43.498;-1.506;2022-12-24T03:16:16;14.30;99.90
34644;DHT22;26931;43.498;-1.506;2022-12-24T03:18:44;14.30;99.90
34644;DHT22;26931;43.498;-1.506;2022-12-24T03:21:11;14.20;99.90
34644;DHT22;26931;43.498;-1.506;2022-12-24T03:23:38;14.30;99.90
34644;DHT22;26931;43.498;-1.506;2022-12-24T03:26:05;14.20;99.90
34644;DHT22;26931;43.498;-1.506;2022-12-24T03:28:31;14.20;99.90
34644;DHT22;26931;43.498;-1.506;2022-12-24T03:30:59;14.20;99.90
34644;DHT22;26931;43.498;-1.506;2022-12-24T03:33:25;14.20;99.90
34644;DHT22;26931;43.498;-1.506;2022-12-24T03:35:51;14.20;99.90
34644;DHT22;26931;43.498;-1.506;2022-12-24T03:38:17;14.20;99.90
34644;DHT22;26931;43.498;-1.506;2022-12-24T03:40:43;14.20;99.90
34644;DHT22;26931;43.498;-1.506;2022-12-24T03:43:09;14.10;99.90
34644;DHT22;26931;43.498;-1.506;2022-12-24T03:45:34;14.10;99.90
34644;DHT22;26931;43.498;-1.506;2022-12-24T03:48:00;14.00;99.90
34644;DHT22;26931;43.498;-1.506;2022-12-24T03:50:26;14.10;99.90
34644;DHT22;26931;43.498;-1.506;2022-12-24T03:52:52;14.10;99.90
34644;DHT22;26931;43.498;-1.506;2022-12-24T03:55:18;13.90;99.90
34644;DHT22;26931;43.498;-1.506;2022-12-24T03:57:44;14.10;99.90
34644;DHT22;26931;43.498;-1.506;2022-12-24T04:00:09;14.10;99.90
34644;DHT22;26931;43.498;-1.506;2022-12-24T04:02:35;14.00;99.90
34644;DHT22;26931;43.498;-1.506;2022-12-24T04:05:01;14.00;99.90
34644;DHT22;26931;43.498;-1.506;2022-12-24T04:07:27;13.90;99.90
34644;DHT22;26931;43.498;-1.506;2022-12-24T04:09:52;14.10;99.90
34644;DHT22;26931;43.498;-1.506;2022-12-24T04:12:18;14.10;99.90
34644;DHT22;26931;43.498;-1.506;2022-12-24T04:14:44;13.90;99.90
34644;DHT22;26931;43.498;-1.506;2022-12-24T04:17:10;13.80;99.90
34644;DHT22;26931;43.498;-1.506;2022-12-24T04:19:35;14.10;99.90
34644;DHT22;26931;43.498;-1.506;2022-12-24T04:22:01;13.80;99.90
34644;DHT22;26931;43.498;-1.506;2022-12-24T04:24:27;13.70;99.90
34644;DHT22;26931;43.498;-1.506;2022-12-24T04:26:53;13.60;99.90
34644;DHT22;26931;43.498;-1.506;2022-12-24T04:29:19;13.70;99.90
34644;DHT22;26931;43.498;-1.506;2022-12-24T04:31:44;13.70;99.90
34644;DHT22;26931;43.498;-1.506;2022-12-24T04:34:10;13.70;99.90
34644;DHT22;26931;43.498;-1.506;2022-12-24T04:36:36;13.70;99.90
34644;DHT22;26931;43.498;-1.506;2022-12-24T04:39:02;13.80;99.90
34644;DHT22;26931;43.498;-1.506;2022-12-24T04:41:28;13.70;99.90
34644;DHT22;26931;43.498;-1.506;2022-12-24T04:43:54;13.80;99.90
34644;DHT22;26931;43.498;-1.506;2022-12-24T04:46:21;13.60;99.90
34644;DHT22;26931;43.498;-1.506;2022-12-24T04:48:48;13.60;99.90
34644;DHT22;26931;43.498;-1.506;2022-12-24T04:51:14;13.50;99.90
34644;DHT22;26931;43.498;-1.506;2022-12-24T04:53:41;13.60;99.90
34644;DHT22;26931;43.498;-1.506;2022-12-24T04:56:14;13.50;99.90
34644;DHT22;26931;43.498;-1.506;2022-12-24T04:58:40;13.80;99.90
34644;DHT22;26931;43.498;-1.506;2022-12-24T05:01:07;13.60;99.90
34644;DHT22;26931;43.498;-1.506;2022-12-24T05:03:33;13.60;99.90
34644;DHT22;26931;43.498;-1.506;2022-12-24T05:06:00;13.60;99.90
34644;DHT22;26931;43.498;-1.506;2022-12-24T05:08:25;13.60;99.90
34644;DHT22;26931;43.498;-1.506;2022-12-24T05:10:55;13.50;99.90
34644;DHT22;26931;43.498;-1.506;2022-12-24T05:13:21;13.50;99.90
34644;DHT22;26931;43.498;-1.506;2022-12-24T05:15:47;13.30;99.90
34644;DHT22;26931;43.498;-1.506;2022-12-24T05:18:13;13.50;99.90
34644;DHT22;26931;43.498;-1.506;2022-12-24T05:20:39;13.50;99.90
34644;DHT22;26931;43.498;-1.506;2022-12-24T05:23:05;13.40;99.90
34644;DHT22;26931;43.498;-1.506;2022-12-24T05:25:49;13.70;99.90
34644;DHT22;26931;43.498;-1.506;2022-12-24T05:28:34;13.50;99.90
34644;DHT22;26931;43.498;-1.506;2022-12-24T05:30:59;13.50;99.90
34644;DHT22;26931;43.498;-1.506;2022-12-24T05:33:25;13.50;99.90
34644;DHT22;26931;43.498;-1.506;2022-12-24T05:35:51;13.30;99.90
34644;DHT22;26931;43.498;-1.506;2022-12-24T05:38:17;13.40;99.90
34644;DHT22;26931;43.498;-1.506;2022-12-24T05:40:43;13.50;99.90
34644;DHT22;26931;43.498;-1.506;2022-12-24T05:43:08;13.50;99.90
34644;DHT22;26931;43.498;-1.506;2022-12-24T05:45:34;13.50;99.90
34644;DHT22;26931;43.498;-1.506;2022-12-24T05:48:00;13.50;99.90
34644;DHT22;26931;43.498;-1.506;2022-12-24T05:50:26;13.50;99.90
34644;DHT22;26931;43.498;-1.506;2022-12-24T05:52:52;13.70;99.90
34644;DHT22;26931;43.498;-1.506;2022-12-24T05:55:17;13.50;99.90
34644;DHT22;26931;43.498;-1.506;2022-12-24T05:57:43;13.50;99.90
34644;DHT22;26931;43.498;-1.506;2022-12-24T06:00:09;13.50;99.90
34644;DHT22;26931;43.498;-1.506;2022-12-24T06:02:35;13.40;99.90
34644;DHT22;26931;43.498;-1.506;2022-12-24T06:05:01;13.40;99.90
34644;DHT22;26931;43.498;-1.506;2022-12-24T06:07:26;13.40;99.90
34644;DHT22;26931;43.498;-1.506;2022-12-24T06:09:52;13.50;99.90
34644;DHT22;26931;43.498;-1.506;2022-12-24T06:12:18;13.40;99.90
34644;DHT22;26931;43.498;-1.506;2022-12-24T06:14:43;13.20;99.90
34644;DHT22;26931;43.498;-1.506;2022-12-24T06:17:09;13.40;99.90
34644;DHT22;26931;43.498;-1.506;2022-12-24T06:19:35;13.40;99.90
34644;DHT22;26931;43.498;-1.506;2022-12-24T06:22:01;13.30;99.90
34644;DHT22;26931;43.498;-1.506;2022-12-24T06:24:27;13.60;99.90
34644;DHT22;26931;43.498;-1.506;2022-12-24T06:26:52;13.20;99.90
34644;DHT22;26931;43.498;-1.506;2022-12-24T06:29:18;13.40;99.90
34644;DHT22;26931;43.498;-1.506;2022-12-24T06:31:44;13.40;99.90
34644;DHT22;26931;43.498;-1.506;2022-12-24T06:34:10;13.40;99.90
34644;DHT22;26931;43.498;-1.506;2022-12-24T06:36:36;13.40;99.90
34644;DHT22;26931;43.498;-1.506;2022-12-24T06:39:02;13.40;99.90
34644;DHT22;26931;43.498;-1.506;2022-12-24T06:41:28;13.30;99.90
34644;DHT22;26931;43.498;-1.506;2022-12-24T06:43:53;13.30;99.90
34644;DHT22;26931;43.498;-1.506;2022-12-24T06:46:20;13.60;99.90
34644;DHT22;26931;43.498;-1.506;2022-12-24T06:48:46;13.40;99.90
34644;DHT22;26931;43.498;-1.506;2022-12-24T06:51:12;13.20;99.90
34644;DHT22;26931;43.498;-1.506;2022-12-24T06:53:38;13.10;99.90
34644;DHT22;26931;43.498;-1.506;2022-12-24T06:56:04;13.10;99.90
34644;DHT22;26931;43.498;-1.506;2022-12-24T06:58:30;13.00;99.90
34644;DHT22;26931;43.498;-1.506;2022-12-24T07:00:57;13.00;99.90
34644;DHT22;26931;43.498;-1.506;2022-12-24T07:03:23;13.20;99.90
34644;DHT22;26931;43.498;-1.506;2022-12-24T07:05:48;12.90;99.90
34644;DHT22;26931;43.498;-1.506;2022-12-24T07:08:14;12.90;99.90
34644;DHT22;26931;43.498;-1.506;2022-12-24T07:10:40;12.90;99.90
34644;DHT22;26931;43.498;-1.506;2022-12-24T07:13:06;13.00;99.90
34644;DHT22;26931;43.498;-1.506;2022-12-24T07:15:32;13.00;99.90
34644;DHT22;26931;43.498;-1.506;2022-12-24T07:17:58;13.00;99.90
34644;DHT22;26931;43.498;-1.506;2022-12-24T07:20:24;13.00;99.90
34644;DHT22;26931;43.498;-1.506;2022-12-24T07:22:49;13.00;99.90
34644;DHT22;26931;43.498;-1.506;2022-12-24T07:25:15;12.90;99.90
34644;DHT22;26931;43.498;-1.506;2022-12-24T07:27:41;13.10;99.90
34644;DHT22;26931;43.498;-1.506;2022-12-24T07:30:07;12.90;99.90
34644;DHT22;26931;43.498;-1.506;2022-12-24T07:32:33;12.90;99.90
34644;DHT22;26931;43.498;-1.506;2022-12-24T07:34:58;12.80;99.90
34644;DHT22;26931;43.498;-1.506;2022-12-24T07:37:24;12.90;99.90
34644;DHT22;26931;43.498;-1.506;2022-12-24T07:39:50;12.80;99.90
34644;DHT22;26931;43.498;-1.506;2022-12-24T07:42:16;12.80;99.90
34644;DHT22;26931;43.498;-1.506;2022-12-24T07:44:41;12.60;99.90
34644;DHT22;26931;43.498;-1.506;2022-12-24T07:47:07;12.60;99.90
34644;DHT22;26931;43.498;-1.506;2022-12-24T07:49:33;12.60;99.90
34644;DHT22;26931;43.498;-1.506;2022-12-24T07:52:00;12.60;99.90
34644;DHT22;26931;43.498;-1.506;2022-12-24T07:54:26;12.40;99.90
34644;DHT22;26931;43.498;-1.506;2022-12-24T07:56:52;12.60;99.90
34644;DHT22;26931;43.498;-1.506;2022-12-24T07:59:17;12.60;99.90
34644;DHT22;26931;43.498;-1.506;2022-12-24T08:01:43;12.60;99.90
34644;DHT22;26931;43.498;-1.506;2022-12-24T08:04:09;12.60;99.90
34644;DHT22;26931;43.498;-1.506;2022-12-24T08:06:35;12.50;99.90
34644;DHT22;26931;43.498;-1.506;2022-12-24T08:09:00;12.40;99.90
34644;DHT22;26931;43.498;-1.506;2022-12-24T08:11:26;12.50;99.90
34644;DHT22;26931;43.498;-1.506;2022-12-24T08:13:52;12.50;99.90
34644;DHT22;26931;43.498;-1.506;2022-12-24T08:16:17;12.50;99.90
34644;DHT22;26931;43.498;-1.506;2022-12-24T08:18:43;12.50;99.90
34644;DHT22;26931;43.498;-1.506;2022-12-24T08:21:09;12.60;99.90
34644;DHT22;26931;43.498;-1.506;2022-12-24T08:23:35;12.60;99.90
34644;DHT22;26931;43.498;-1.506;2022-12-24T08:26:01;12.50;99.90
34644;DHT22;26931;43.498;-1.506;2022-12-24T08:28:28;12.70;99.90
34644;DHT22;26931;43.498;-1.506;2022-12-24T08:30:54;12.50;99.90
34644;DHT22;26931;43.498;-1.506;2022-12-24T08:33:19;12.50;99.90
34644;DHT22;26931;43.498;-1.506;2022-12-24T08:35:50;12.40;99.90
34644;DHT22;26931;43.498;-1.506;2022-12-24T08:38:15;12.40;99.90
34644;DHT22;26931;43.498;-1.506;2022-12-24T08:40:41;12.40;99.90
34644;DHT22;26931;43.498;-1.506;2022-12-24T08:43:07;12.40;99.90
34644;DHT22;26931;43.498;-1.506;2022-12-24T08:45:33;12.60;99.90
34644;DHT22;26931;43.498;-1.506;2022-12-24T08:48:01;12.50;99.90
34644;DHT22;26931;43.498;-1.506;2022-12-24T08:50:27;12.60;99.90
34644;DHT22;26931;43.498;-1.506;2022-12-24T08:52:53;12.50;99.90
34644;DHT22;26931;43.498;-1.506;2022-12-24T08:55:18;12.50;99.90
34644;DHT22;26931;43.498;-1.506;2022-12-24T08:57:44;12.60;99.90
34644;DHT22;26931;43.498;-1.506;2022-12-24T09:00:10;12.80;99.90
34644;DHT22;26931;43.498;-1.506;2022-12-24T09:02:36;12.60;99.90
34644;DHT22;26931;43.498;-1.506;2022-12-24T09:05:02;12.70;99.90
34644;DHT22;26931;43.498;-1.506;2022-12-24T09:07:28;12.70;99.90
34644;DHT22;26931;43.498;-1.506;2022-12-24T09:09:54;12.80;99.90
34644;DHT22;26931;43.498;-1.506;2022-12-24T09:12:20;12.80;99.90
34644;DHT22;26931;43.498;-1.506;2022-12-24T09:14:45;12.80;99.90
34644;DHT22;26931;43.498;-1.506;2022-12-24T09:17:11;12.70;99.90
34644;DHT22;26931;43.498;-1.506;2022-12-24T09:19:37;12.70;99.90
34644;DHT22;26931;43.498;-1.506;2022-12-24T09:22:02;12.70;99.90
34644;DHT22;26931;43.498;-1.506;2022-12-24T09:24:28;12.70;99.90
34644;DHT22;26931;43.498;-1.506;2022-12-24T09:26:54;12.60;99.90
34644;DHT22;26931;43.498;-1.506;2022-12-24T09:29:20;12.80;99.90
34644;DHT22;26931;43.498;-1.506;2022-12-24T09:31:45;12.90;99.90
34644;DHT22;26931;43.498;-1.506;2022-12-24T09:34:11;13.00;99.90
34644;DHT22;26931;43.498;-1.506;2022-12-24T09:36:36;13.00;99.90
34644;DHT22;26931;43.498;-1.506;2022-12-24T09:39:02;13.10;99.90
34644;DHT22;26931;43.498;-1.506;2022-12-24T09:44:33;13.20;99.90
34644;DHT22;26931;43.498;-1.506;2022-12-24T09:47:05;13.30;99.90
34644;DHT22;26931;43.498;-1.506;2022-12-24T09:49:36;13.40;99.90
34644;DHT22;26931;43.498;-1.506;2022-12-24T09:52:04;13.50;99.90
34644;DHT22;26931;43.498;-1.506;2022-12-24T09:54:32;13.60;99.90
34644;DHT22;26931;43.498;-1.506;2022-12-24T09:57:00;13.70;99.90
34644;DHT22;26931;43.498;-1.506;2022-12-24T09:59:47;13.60;99.90
34644;DHT22;26931;43.498;-1.506;2022-12-24T10:02:15;13.90;99.90
34644;DHT22;26931;43.498;-1.506;2022-12-24T10:04:42;13.90;99.90
34644;DHT22;26931;43.498;-1.506;2022-12-24T10:09:43;14.10;99.90
34644;DHT22;26931;43.498;-1.506;2022-12-24T10:27:39;14.70;99.90
34644;DHT22;26931;43.498;-1.506;2022-12-24T10:30:12;14.80;99.90
34644;DHT22;26931;43.498;-1.506;2022-12-24T10:32:38;14.90;99.90
34644;DHT22;26931;43.498;-1.506;2022-12-24T10:37:33;15.10;99.90
34644;DHT22;26931;43.498;-1.506;2022-12-24T10:39:59;15.20;99.90
34644;DHT22;26931;43.498;-1.506;2022-12-24T10:42:35;15.30;99.90
34644;DHT22;26931;43.498;-1.506;2022-12-24T10:45:04;15.40;99.90
34644;DHT22;26931;43.498;-1.506;2022-12-24T10:47:32;15.60;99.60
34644;DHT22;26931;43.498;-1.506;2022-12-24T10:50:00;15.70;99.20
34644;DHT22;26931;43.498;-1.506;2022-12-24T10:52:28;15.70;98.80
34644;DHT22;26931;43.498;-1.506;2022-12-24T10:57:40;15.90;97.90
34644;DHT22;26931;43.498;-1.506;2022-12-24T11:00:06;16.10;97.40
34644;DHT22;26931;43.498;-1.506;2022-12-24T11:02:33;16.10;97.00
34644;DHT22;26931;43.498;-1.506;2022-12-24T11:05:00;16.10;96.60
34644;DHT22;26931;43.498;-1.506;2022-12-24T11:07:27;16.30;96.10
34644;DHT22;26931;43.498;-1.506;2022-12-24T11:09:54;16.30;95.70
34644;DHT22;26931;43.498;-1.506;2022-12-24T11:12:21;16.40;95.50
34644;DHT22;26931;43.498;-1.506;2022-12-24T11:14:48;16.60;95.10
34644;DHT22;26931;43.498;-1.506;2022-12-24T11:17:23;16.50;94.80
34644;DHT22;26931;43.498;-1.506;2022-12-24T11:19:49;16.60;94.70
34644;DHT22;26931;43.498;-1.506;2022-12-24T11:25:06;16.60;95.00
34644;DHT22;26931;43.498;-1.506;2022-12-24T11:27:43;16.70;95.10
34644;DHT22;26931;43.498;-1.506;2022-12-24T11:32:44;16.70;95.00
34644;DHT22;26931;43.498;-1.506;2022-12-24T11:37:42;16.90;94.60
34644;DHT22;26931;43.498;-1.506;2022-12-24T11:40:18;16.90;94.30
34644;DHT22;26931;43.498;-1.506;2022-12-24T11:42:45;17.20;94.00
34644;DHT22;26931;43.498;-1.506;2022-12-24T11:47:43;17.10;93.30
34644;DHT22;26931;43.498;-1.506;2022-12-24T11:52:46;17.20;92.70
34644;DHT22;26931;43.498;-1.506;2022-12-24T11:55:15;17.30;92.50
34644;DHT22;26931;43.498;-1.506;2022-12-24T11:57:50;17.40;92.20
34644;DHT22;26931;43.498;-1.506;2022-12-24T12:00:17;17.40;91.90
34644;DHT22;26931;43.498;-1.506;2022-12-24T12:02:44;17.50;91.50
34644;DHT22;26931;43.498;-1.506;2022-12-24T12:05:12;17.60;91.10
34644;DHT22;26931;43.498;-1.506;2022-12-24T12:07:40;17.60;90.80
34644;DHT22;26931;43.498;-1.506;2022-12-24T12:15:24;17.80;90.00
34644;DHT22;26931;43.498;-1.506;2022-12-24T12:20:29;17.80;89.20
34644;DHT22;26931;43.498;-1.506;2022-12-24T12:23:13;17.90;88.80
34644;DHT22;26931;43.498;-1.506;2022-12-24T12:25:45;18.00;88.40
34644;DHT22;26931;43.498;-1.506;2022-12-24T12:31:11;18.00;87.30
34644;DHT22;26931;43.498;-1.506;2022-12-24T12:33:44;18.10;86.80
34644;DHT22;26931;43.498;-1.506;2022-12-24T12:36:11;18.20;86.50
34644;DHT22;26931;43.498;-1.506;2022-12-24T12:38:38;18.20;86.00
34644;DHT22;26931;43.498;-1.506;2022-12-24T12:46:17;18.30;85.00
34644;DHT22;26931;43.498;-1.506;2022-12-24T12:56:50;18.50;83.70
34644;DHT22;26931;43.498;-1.506;2022-12-24T13:02:21;18.50;82.80
34644;DHT22;26931;43.498;-1.506;2022-12-24T13:07:39;18.60;82.20
34644;DHT22;26931;43.498;-1.506;2022-12-24T13:15:56;18.70;81.30
34644;DHT22;26931;43.498;-1.506;2022-12-24T13:20:52;18.80;80.70
34644;DHT22;26931;43.498;-1.506;2022-12-24T13:23:25;18.80;80.40
34644;DHT22;26931;43.498;-1.506;2022-12-24T13:25:51;19.00;80.10
34644;DHT22;26931;43.498;-1.506;2022-12-24T13:30:49;18.80;79.50
34644;DHT22;26931;43.498;-1.506;2022-12-24T13:36:04;19.00;79.40
34644;DHT22;26931;43.498;-1.506;2022-12-24T13:38:32;19.00;79.10
34644;DHT22;26931;43.498;-1.506;2022-12-24T13:44:01;19.00;79.80
34644;DHT22;26931;43.498;-1.506;2022-12-24T13:54:35;19.00;78.00
34644;DHT22;26931;43.498;-1.506;2022-12-24T13:57:01;19.10;77.80
34644;DHT22;26931;43.498;-1.506;2022-12-24T13:59:36;19.10;77.60
34644;DHT22;26931;43.498;-1.506;2022-12-24T14:02:03;19.10;77.40
34644;DHT22;26931;43.498;-1.506;2022-12-24T14:04:31;19.20;77.00
34644;DHT22;26931;43.498;-1.506;2022-12-24T14:06:58;19.20;76.80
34644;DHT22;26931;43.498;-1.506;2022-12-24T14:09:25;19.20;76.60
34644;DHT22;26931;43.498;-1.506;2022-12-24T14:14:27;19.20;76.30
34644;DHT22;26931;43.498;-1.506;2022-12-24T14:16:54;19.30;76.40
34644;DHT22;26931;43.498;-1.506;2022-12-24T14:24:38;19.30;75.60
34644;DHT22;26931;43.498;-1.506;2022-12-24T14:27:19;19.30;75.20
34644;DHT22;26931;43.498;-1.506;2022-12-24T14:29:49;19.20;75.00
34644;DHT22;26931;43.498;-1.506;2022-12-24T14:32:16;19.40;74.90
34644;DHT22;26931;43.498;-1.506;2022-12-24T14:34:42;19.40;74.70
34644;DHT22;26931;43.498;-1.506;2022-12-24T14:37:09;19.40;74.40
34644;DHT22;26931;43.498;-1.506;2022-12-24T14:39:38;19.40;74.30
34644;DHT22;26931;43.498;-1.506;2022-12-24T14:50:14;19.40;73.90
34644;DHT22;26931;43.498;-1.506;2022-12-24T14:52:47;19.40;73.70
34644;DHT22;26931;43.498;-1.506;2022-12-24T14:55:31;19.30;73.70
34644;DHT22;26931;43.498;-1.506;2022-12-24T15:00:44;19.50;73.70
34644;DHT22;26931;43.498;-1.506;2022-12-24T15:03:13;19.40;73.40
34644;DHT22;26931;43.498;-1.506;2022-12-24T15:05:39;19.30;73.20
34644;DHT22;26931;43.498;-1.506;2022-12-24T15:08:14;19.40;73.20
34644;DHT22;26931;43.498;-1.506;2022-12-24T15:10:42;19.30;73.20
34644;DHT22;26931;43.498;-1.506;2022-12-24T15:13:19;19.30;73.20
34644;DHT22;26931;43.498;-1.506;2022-12-24T15:15:46;19.30;73.20
34644;DHT22;26931;43.498;-1.506;2022-12-24T15:18:13;19.30;73.20
34644;DHT22;26931;43.498;-1.506;2022-12-24T15:20:41;19.30;73.10
34644;DHT22;26931;43.498;-1.506;2022-12-24T15:23:15;19.30;73.10
34644;DHT22;26931;43.498;-1.506;2022-12-24T15:25:42;19.20;73.00
34644;DHT22;26931;43.498;-1.506;2022-12-24T15:28:17;19.30;73.10
34644;DHT22;26931;43.498;-1.506;2022-12-24T15:30:44;19.30;73.00
34644;DHT22;26931;43.498;-1.506;2022-12-24T15:33:10;19.20;72.90
34644;DHT22;26931;43.498;-1.506;2022-12-24T15:35:52;19.20;73.00
34644;DHT22;26931;43.498;-1.506;2022-12-24T15:38:23;19.20;73.00
34644;DHT22;26931;43.498;-1.506;2022-12-24T15:40:49;19.20;73.00
34644;DHT22;26931;43.498;-1.506;2022-12-24T15:43:15;19.20;73.00
34644;DHT22;26931;43.498;-1.506;2022-12-24T15:45:42;19.20;73.00
34644;DHT22;26931;43.498;-1.506;2022-12-24T15:48:10;19.10;73.00
34644;DHT22;26931;43.498;-1.506;2022-12-24T15:50:37;19.10;73.00
34644;DHT22;26931;43.498;-1.506;2022-12-24T15:53:12;19.10;73.00
34644;DHT22;26931;43.498;-1.506;2022-12-24T15:55:39;19.00;73.00
34644;DHT22;26931;43.498;-1.506;2022-12-24T15:58:15;19.10;73.10
34644;DHT22;26931;43.498;-1.506;2022-12-24T16:00:42;19.10;73.20
34644;DHT22;26931;43.498;-1.506;2022-12-24T16:03:15;19.00;73.20
34644;DHT22;26931;43.498;-1.506;2022-12-24T16:05:42;19.10;73.30
34644;DHT22;26931;43.498;-1.506;2022-12-24T16:10:34;19.00;73.30
34644;DHT22;26931;43.498;-1.506;2022-12-24T16:13:09;18.90;73.30
34644;DHT22;26931;43.498;-1.506;2022-12-24T16:15:40;18.90;73.40
34644;DHT22;26931;43.498;-1.506;2022-12-24T16:18:13;18.90;73.40
34644;DHT22;26931;43.498;-1.506;2022-12-24T16:20:39;18.80;73.40
34644;DHT22;26931;43.498;-1.506;2022-12-24T16:23:17;18.80;73.50
34644;DHT22;26931;43.498;-1.506;2022-12-24T16:25:43;18.80;73.50
34644;DHT22;26931;43.498;-1.506;2022-12-24T16:28:10;18.80;73.60
34644;DHT22;26931;43.498;-1.506;2022-12-24T16:30:36;18.70;73.60
34644;DHT22;26931;43.498;-1.506;2022-12-24T16:33:01;18.70;73.60
34644;DHT22;26931;43.498;-1.506;2022-12-24T16:35:28;18.70;73.70
34644;DHT22;26931;43.498;-1.506;2022-12-24T16:37:57;18.70;73.70
34644;DHT22;26931;43.498;-1.506;2022-12-24T16:40:23;18.70;73.70
34644;DHT22;26931;43.498;-1.506;2022-12-24T16:42:49;18.70;73.60
34644;DHT22;26931;43.498;-1.506;2022-12-24T16:45:33;18.70;73.60
34644;DHT22;26931;43.498;-1.506;2022-12-24T16:47:59;18.70;73.70
34644;DHT22;26931;43.498;-1.506;2022-12-24T16:50:25;18.60;73.80
34644;DHT22;26931;43.498;-1.506;2022-12-24T16:52:51;18.70;73.90
34644;DHT22;26931;43.498;-1.506;2022-12-24T16:55:17;18.60;74.70
34644;DHT22;26931;43.498;-1.506;2022-12-24T16:57:43;18.60;74.00
34644;DHT22;26931;43.498;-1.506;2022-12-24T17:00:16;18.60;74.00
34644;DHT22;26931;43.498;-1.506;2022-12-24T17:02:42;18.50;74.10
34644;DHT22;26931;43.498;-1.506;2022-12-24T17:05:08;18.50;74.10
34644;DHT22;26931;43.498;-1.506;2022-12-24T17:07:34;18.50;74.20
34644;DHT22;26931;43.498;-1.506;2022-12-24T17:09:59;18.40;74.20
34644;DHT22;26931;43.498;-1.506;2022-12-24T17:12:25;18.40;74.30
34644;DHT22;26931;43.498;-1.506;2022-12-24T17:14:51;18.30;74.30
34644;DHT22;26931;43.498;-1.506;2022-12-24T17:17:26;18.40;74.50
34644;DHT22;26931;43.498;-1.506;2022-12-24T17:19:53;18.30;74.70
34644;DHT22;26931;43.498;-1.506;2022-12-24T17:22:18;18.30;74.70
34644;DHT22;26931;43.498;-1.506;2022-12-24T17:24:44;18.30;74.80
34644;DHT22;26931;43.498;-1.506;2022-12-24T17:27:10;18.20;74.90
34644;DHT22;26931;43.498;-1.506;2022-12-24T17:29:36;18.40;75.10
34644;DHT22;26931;43.498;-1.506;2022-12-24T17:32:02;18.20;74.80